Station History

Weather Underground - logo

Station Historical Data
Daily Summary for January 16, 2018 Units:  English    Metric   Both
« Previous Day
Next Day »
Daily Weekly Monthly Yearly Custom
  High: Low: Average:
Temperature: 56.0 °F 45.9 °F 50.1 °F
Dew Point: 52.8 °F 44.8 °F 48.9 °F
Humidity: 97 % 89 % 96 %
Wind Speed: 2.3 mph 0.0 mph 0.5 mph
Wind Gust: 2.3 mph - -
Wind:- - South
Pressure: 30.28 in 30.15 in -
Precipitation: 0.01 in    
Historical Graphs
 
 
Tabular Data for January 16, 2018
Time Temperature Dew Point Pressure Wind Wind Speed Wind Gust Humidity Rainfall Rate (Hourly)
00:28 47.0 °F 46.2 °F 30.15 in Calm     97 % 0.00 in
00:37 46.1 °F 45.0 °F 30.16 in Calm     96 % 0.00 in
00:43 45.9 °F 44.8 °F 30.16 in Calm     96 % 0.00 in
00:50 46.0 °F 44.9 °F 30.16 in SE 1.2 mph   96 % 0.00 in
01:05 46.1 °F 45.0 °F 30.16 in Calm     96 % 0.00 in
01:18 46.4 °F 45.6 °F 30.16 in Calm     97 % 0.00 in
01:24 46.5 °F 45.7 °F 30.16 in Calm     97 % 0.00 in
01:30 46.5 °F 45.7 °F 30.16 in SE 1.2 mph 1.2 mph 97 % 0.00 in
01:51 46.3 °F 45.2 °F 30.18 in Calm     96 % 0.00 in
01:56 46.3 °F 45.2 °F 30.18 in Calm     96 % 0.00 in
01:57 46.3 °F 45.2 °F 30.18 in Calm     96 % 0.00 in
02:23 45.9 °F 44.8 °F 30.19 in Calm     96 % 0.00 in
02:29 46.0 °F 45.2 °F 30.19 in Calm     97 % 0.00 in
02:36 46.0 °F 45.2 °F 30.19 in ESE 1.2 mph 1.2 mph 97 % 0.00 in
02:41 46.1 °F 45.3 °F 30.19 in ESE 1.2 mph 1.2 mph 97 % 0.00 in
03:06 46.5 °F 45.7 °F 30.18 in ESE 1.2 mph 1.2 mph 97 % 0.00 in
03:22 46.5 °F 45.7 °F 30.19 in Calm     97 % 0.00 in
03:38 46.6 °F 45.8 °F 30.18 in Calm     97 % 0.00 in
03:54 46.8 °F 46.0 °F 30.19 in ESE 1.2 mph 1.2 mph 97 % 0.01 in
04:16 47.0 °F 46.2 °F 30.19 in Calm     97 % 0.01 in
04:30 47.1 °F 46.3 °F 30.19 in Calm     97 % 0.01 in
04:37 47.2 °F 46.4 °F 30.19 in Calm     97 % 0.01 in
04:42 47.1 °F 46.3 °F 30.18 in Calm     97 % 0.01 in
04:51 47.2 °F 46.4 °F 30.21 in Calm     97 % 0.00 in
05:05 47.2 °F 46.4 °F 30.20 in Calm     97 % 0.00 in
05:13 47.2 °F 46.4 °F 30.20 in Calm     97 % 0.00 in
05:26 47.2 °F 46.4 °F 30.20 in Calm     97 % 0.00 in
05:42 47.2 °F 46.4 °F 30.21 in Calm     97 % 0.00 in
05:50 47.3 °F 46.5 °F 30.21 in ESE 1.2 mph 1.2 mph 97 % 0.00 in
05:55 47.3 °F 46.5 °F 30.21 in ESE 2.3 mph 2.3 mph 97 % 0.00 in
06:01 47.4 °F 46.6 °F 30.21 in Calm     97 % 0.00 in
06:07 47.5 °F 46.7 °F 30.22 in Calm     97 % 0.00 in
06:33 47.5 °F 46.7 °F 30.23 in Calm     97 % 0.00 in
06:40 47.4 °F 46.6 °F 30.23 in Calm     97 % 0.00 in
06:52 47.5 °F 46.7 °F 30.23 in Calm     97 % 0.00 in
07:03 47.6 °F 46.8 °F 30.22 in Calm     97 % 0.00 in
07:09 47.6 °F 46.8 °F 30.22 in ESE 1.2 mph   97 % 0.00 in
07:17 47.6 °F 46.8 °F 30.22 in ESE 1.2 mph 1.2 mph 97 % 0.00 in
07:34 47.5 °F 46.7 °F 30.22 in ESE 1.2 mph   97 % 0.00 in
07:42 47.4 °F 46.6 °F 30.22 in ESE 1.2 mph   97 % 0.00 in
07:49 47.4 °F 46.6 °F 30.21 in Calm     97 % 0.00 in
07:56 47.4 °F 46.6 °F 30.21 in ESE 1.2 mph   97 % 0.00 in
08:12 47.4 °F 46.6 °F 30.21 in Calm     97 % 0.00 in
08:17 47.4 °F 46.6 °F 30.20 in Calm     97 % 0.00 in
08:29 47.6 °F 46.8 °F 30.21 in SE 2.3 mph 2.3 mph 97 % 0.00 in
08:47 48.5 °F 47.7 °F 30.21 in Calm     97 % 0.00 in
08:58 48.9 °F 48.1 °F 30.23 in NW 1.2 mph 1.2 mph 97 % 0.00 in
09:15 49.2 °F 48.4 °F 30.25 in NW 1.2 mph 1.2 mph 97 % 0.00 in
09:30 49.7 °F 48.9 °F 30.24 in Calm     97 % 0.00 in
09:38 49.7 °F 48.9 °F 30.25 in Calm     97 % 0.00 in
09:55 49.7 °F 48.9 °F 30.27 in WNW 1.2 mph   97 % 0.00 in
10:02 49.7 °F 48.9 °F 30.28 in WNW 1.2 mph 1.2 mph 97 % 0.00 in
10:17 49.6 °F 48.8 °F 30.28 in WNW 1.2 mph 1.2 mph 97 % 0.00 in
10:30 49.9 °F 49.1 °F 30.27 in SSE 1.2 mph   97 % 0.00 in
10:50 50.3 °F 49.5 °F 30.28 in Calm     97 % 0.00 in
11:12 50.9 °F 50.1 °F 30.27 in SE 1.2 mph   97 % 0.00 in
11:26 51.4 °F 50.6 °F 30.27 in SE 1.2 mph 1.2 mph 97 % 0.00 in
11:34 51.6 °F 50.8 °F 30.26 in Calm     97 % 0.00 in
11:40 51.5 °F 50.7 °F 30.26 in Calm     97 % 0.00 in
11:46 51.7 °F 50.9 °F 30.26 in Calm     97 % 0.00 in
11:54 51.8 °F 51.0 °F 30.25 in Calm     97 % 0.00 in
12:05 51.9 °F 50.8 °F 30.24 in SSE 1.2 mph   96 % 0.00 in
12:14 52.2 °F 51.1 °F 30.24 in Calm     96 % 0.00 in
12:29 52.8 °F 51.4 °F 30.23 in Calm     95 % 0.00 in
12:42 53.8 °F 52.1 °F 30.23 in SE 2.0 mph 2.0 mph 94 % 0.00 in
12:48 54.4 °F 52.4 °F 30.23 in WNW 1.2 mph   93 % 0.00 in
12:57 54.8 °F 52.5 °F 30.23 in NW 2.3 mph   92 % 0.00 in
13:04 55.1 °F 52.5 °F 30.23 in Calm     91 % 0.00 in
13:22 54.1 °F 51.8 °F 30.23 in NNW 2.3 mph 2.3 mph 92 % 0.00 in
13:41 54.1 °F 51.5 °F 30.22 in SE 1.2 mph 1.2 mph 91 % 0.00 in
13:48 54.0 °F 51.4 °F 30.23 in WNW 1.2 mph   91 % 0.00 in
14:24 55.1 °F 52.2 °F 30.22 in NNW 1.2 mph   90 % 0.00 in
14:36 55.0 °F 51.8 °F 30.22 in Calm     89 % 0.00 in
14:46 55.2 °F 52.3 °F 30.22 in NNW 1.2 mph   90 % 0.00 in
15:05 55.7 °F 52.5 °F 30.21 in Calm     89 % 0.00 in
15:14 56.0 °F 52.8 °F 30.21 in Calm     89 % 0.00 in
15:24 55.9 °F 52.7 °F 30.21 in SE 1.2 mph 1.2 mph 89 % 0.00 in
15:30 55.8 °F 52.6 °F 30.21 in Calm     89 % 0.00 in
15:48 55.3 °F 52.4 °F 30.22 in Calm     90 % 0.00 in
16:04 54.6 °F 52.0 °F 30.21 in Calm     91 % 0.00 in
16:10 54.3 °F 51.7 °F 30.21 in Calm     91 % 0.00 in
16:25 53.7 °F 51.4 °F 30.21 in Calm     92 % 0.00 in
16:32 53.4 °F 51.1 °F 30.21 in Calm     92 % 0.00 in
16:40 53.2 °F 51.2 °F 30.21 in Calm     93 % 0.00 in
16:47 52.9 °F 50.9 °F 30.21 in Calm     93 % 0.00 in
17:06 52.1 °F 50.4 °F 30.22 in Calm     94 % 0.00 in
17:25 51.7 °F 50.3 °F 30.21 in Calm     95 % 0.00 in
17:31 51.6 °F 50.2 °F 30.21 in Calm     95 % 0.00 in
17:44 51.6 °F 50.2 °F 30.22 in East 1.2 mph   95 % 0.00 in
17:52 51.8 °F 50.7 °F 30.23 in West 1.2 mph 1.2 mph 96 % 0.00 in
18:07 51.9 °F 50.8 °F 30.23 in Calm   0.2 mph 96 % 0.00 in
18:12 51.9 °F 50.8 °F 30.22 in Calm     96 % 0.00 in
18:19 52.0 °F 50.9 °F 30.22 in Calm     96 % 0.00 in
19:01 51.9 °F 50.8 °F 30.24 in Calm     96 % 0.00 in
19:08 51.9 °F 50.8 °F 30.24 in SE 1.2 mph   96 % 0.00 in
19:24 51.8 °F 50.7 °F 30.24 in Calm     96 % 0.00 in
19:30 51.8 °F 50.7 °F 30.24 in Calm   0.1 mph 96 % 0.00 in
19:36 51.8 °F 50.7 °F 30.24 in Calm     96 % 0.00 in
19:52 51.9 °F 50.8 °F 30.24 in SE 1.2 mph   96 % 0.00 in
20:15 51.8 °F 50.7 °F 30.23 in East 1.2 mph 1.2 mph 96 % 0.00 in
20:22 51.8 °F 50.7 °F 30.23 in East 1.2 mph   96 % 0.00 in
20:29 51.7 °F 50.6 °F 30.23 in Calm     96 % 0.00 in
20:54 51.1 °F 50.0 °F 30.23 in East 1.2 mph 1.2 mph 96 % 0.00 in
21:03 51.2 °F 50.1 °F 30.23 in Calm     96 % 0.00 in
21:11 51.1 °F 50.0 °F 30.23 in Calm     96 % 0.00 in
21:17 51.0 °F 49.9 °F 30.24 in Calm     96 % 0.00 in
21:48 50.6 °F 49.8 °F 30.24 in Calm     97 % 0.00 in
21:57 50.8 °F 50.0 °F 30.24 in Calm     97 % 0.00 in
22:06 50.9 °F 50.1 °F 30.24 in Calm     97 % 0.00 in
22:18 50.9 °F 50.1 °F 30.25 in NW 1.2 mph 1.2 mph 97 % 0.00 in
22:37 50.9 °F 50.1 °F 30.26 in WNW 2.3 mph 2.3 mph 97 % 0.00 in
22:46 51.0 °F 50.2 °F 30.25 in WNW 1.2 mph 1.2 mph 97 % 0.00 in
22:55 50.9 °F 50.1 °F 30.26 in Calm   0.3 mph 97 % 0.00 in
23:16 50.8 °F 50.0 °F 30.26 in Calm     97 % 0.00 in
23:38 50.4 °F 49.6 °F 30.26 in Calm     97 % 0.00 in
23:49 50.3 °F 49.5 °F 30.26 in Calm     97 % 0.00 in
Park Place, Exeter, Tulare County, California, USA
Compliments of Weather Underground - 1.75 mb